createdAt,value
2017-07-02T00:01:41.324Z,10.13
2017-07-02T00:04:09.538Z,11.70
2017-07-02T00:06:37.785Z,11.10
2017-07-02T00:09:05.983Z,11.90
2017-07-02T00:11:34.219Z,12.70
2017-07-02T00:14:02.417Z,11.97
2017-07-02T00:16:30.593Z,13.47
2017-07-02T00:18:58.816Z,15.07
2017-07-02T00:21:27.018Z,14.57
2017-07-02T00:23:55.217Z,15.53
2017-07-02T00:26:23.437Z,16.20
2017-07-02T00:28:51.657Z,16.77
2017-07-02T00:31:19.871Z,18.00
2017-07-02T00:33:48.823Z,16.87
2017-07-02T00:36:17.026Z,16.27
2017-07-02T00:38:45.972Z,18.40
2017-07-02T00:41:14.179Z,18.13
2017-07-02T00:43:42.368Z,19.90
2017-07-02T00:46:11.350Z,21.77
2017-07-02T00:48:40.333Z,19.00
2017-07-02T00:51:08.568Z,22.43
2017-07-02T00:53:36.764Z,22.97
2017-07-02T00:56:04.983Z,21.13
2017-07-02T00:58:33.947Z,21.17
2017-07-02T01:01:02.119Z,21.07
2017-07-02T01:03:30.354Z,21.30
2017-07-02T01:05:58.554Z,19.67
2017-07-02T01:08:26.825Z,20.77
2017-07-02T01:10:55.056Z,20.53
2017-07-02T01:13:23.307Z,21.20
2017-07-02T01:15:51.489Z,20.40
2017-07-02T01:18:19.685Z,22.57
2017-07-02T01:20:47.908Z,20.93
2017-07-02T01:23:16.095Z,21.33
2017-07-02T01:25:44.339Z,21.07
2017-07-02T01:28:12.538Z,23.40
2017-07-02T01:30:41.552Z,21.93
2017-07-02T01:33:10.525Z,23.13
2017-07-02T01:35:38.745Z,22.70
2017-07-02T01:38:06.968Z,22.20
2017-07-02T01:40:35.197Z,21.93
2017-07-02T01:43:03.373Z,22.43
2017-07-02T01:45:31.621Z,23.37
2017-07-02T01:48:00.613Z,22.93
2017-07-02T01:50:29.583Z,25.50
2017-07-02T01:52:58.519Z,22.53
2017-07-02T01:55:26.716Z,25.97
2017-07-02T01:57:54.935Z,24.23
2017-07-02T02:00:23.091Z,25.60
2017-07-02T02:03:17.015Z,26.00
2017-07-02T02:05:45.373Z,25.17
2017-07-02T02:08:13.564Z,25.47
2017-07-02T02:10:41.776Z,26.90
2017-07-02T02:13:10.018Z,26.57
2017-07-02T02:15:38.193Z,27.50
2017-07-02T02:18:06.408Z,25.80
2017-07-02T02:20:34.612Z,26.00
2017-07-02T02:23:02.850Z,27.13
2017-07-02T02:25:31.020Z,27.17
2017-07-02T02:27:59.252Z,26.57
2017-07-02T02:30:27.458Z,26.60
2017-07-02T02:32:55.632Z,24.97
2017-07-02T02:35:23.882Z,25.67
2017-07-02T02:37:52.080Z,27.83
2017-07-02T02:40:20.283Z,24.80
2017-07-02T02:42:49.240Z,24.87
2017-07-02T02:45:17.438Z,24.53
2017-07-02T02:47:46.426Z,25.23
2017-07-02T02:50:14.602Z,24.47
2017-07-02T02:52:42.844Z,23.97
2017-07-02T02:55:11.046Z,25.17
2017-07-02T02:57:39.297Z,24.43
2017-07-02T03:00:07.507Z,25.73
2017-07-02T03:02:36.479Z,24.23
2017-07-02T03:05:04.700Z,23.30
2017-07-02T03:07:32.892Z,23.90
2017-07-02T03:10:01.098Z,24.00
2017-07-02T03:12:29.308Z,23.13
2017-07-02T03:14:58.302Z,23.57
2017-07-02T03:17:27.295Z,22.90
2017-07-02T03:19:56.263Z,23.80
2017-07-02T03:22:25.254Z,24.70
2017-07-02T03:24:54.254Z,24.90
2017-07-02T03:27:23.185Z,23.60
2017-07-02T03:29:51.467Z,24.07
2017-07-02T03:32:19.803Z,22.77
2017-07-02T03:34:48.789Z,24.13
2017-07-02T03:37:17.775Z,23.53
2017-07-02T03:39:46.708Z,23.57
2017-07-02T03:42:14.958Z,22.60
2017-07-02T03:44:43.919Z,24.10
2017-07-02T03:47:12.121Z,25.47
2017-07-02T03:49:40.342Z,22.80
2017-07-02T03:52:08.531Z,22.70
2017-07-02T03:54:36.812Z,24.90
2017-07-02T03:57:05.044Z,23.50
2017-07-02T03:59:33.292Z,22.53
2017-07-02T04:02:02.260Z,24.60
2017-07-02T04:04:30.480Z,26.07
2017-07-02T04:06:58.803Z,23.00
2017-07-02T04:09:27.025Z,23.20
2017-07-02T04:11:55.310Z,23.73
2017-07-02T04:14:23.506Z,24.63
2017-07-02T04:16:51.756Z,23.87
2017-07-02T04:19:20.012Z,24.30
2017-07-02T04:21:48.242Z,22.97
2017-07-02T04:24:16.459Z,25.80
2017-07-02T04:26:45.445Z,24.40
2017-07-02T04:29:14.470Z,25.23
2017-07-02T04:31:42.714Z,23.93
2017-07-02T04:34:11.727Z,22.73
2017-07-02T04:36:40.005Z,25.23
2017-07-02T04:39:08.217Z,24.30
2017-07-02T04:41:37.190Z,25.60
2017-07-02T04:44:05.403Z,27.27
2017-07-02T04:46:34.358Z,24.67
2017-07-02T04:49:02.736Z,25.10
2017-07-02T04:51:31.151Z,25.87
2017-07-02T04:54:00.113Z,22.90
2017-07-02T04:56:28.425Z,25.80
2017-07-02T04:58:57.390Z,24.90
2017-07-02T05:01:25.600Z,25.77
2017-07-02T05:03:53.806Z,24.37
2017-07-02T05:06:22.033Z,24.40
2017-07-02T05:08:51.014Z,24.10
2017-07-02T05:11:19.321Z,23.17
2017-07-02T05:13:47.518Z,22.63
2017-07-02T05:16:15.737Z,24.10
2017-07-02T05:18:43.954Z,23.07
2017-07-02T05:21:12.149Z,22.37
2017-07-02T05:23:40.380Z,24.63
2017-07-02T05:26:09.375Z,23.37
2017-07-02T05:28:38.356Z,25.30
2017-07-02T05:31:07.391Z,24.03
2017-07-02T05:33:35.638Z,22.17
2017-07-02T05:36:03.838Z,24.73
2017-07-02T05:38:32.032Z,24.57
2017-07-02T05:41:00.260Z,23.30
2017-07-02T05:43:28.452Z,22.13
2017-07-02T05:45:56.763Z,22.13
2017-07-02T05:48:24.963Z,22.70
2017-07-02T05:50:53.215Z,22.83
2017-07-02T05:53:21.485Z,24.13
2017-07-02T05:55:49.684Z,22.33
2017-07-02T05:58:18.704Z,21.73
2017-07-02T06:00:46.896Z,21.50
2017-07-02T06:03:15.116Z,22.17
2017-07-02T06:05:44.074Z,22.37
2017-07-02T06:08:12.296Z,23.57
2017-07-02T06:10:41.280Z,21.53
2017-07-02T06:13:10.268Z,23.33
2017-07-02T06:15:38.456Z,21.50
2017-07-02T06:18:07.485Z,22.93
2017-07-02T06:20:35.684Z,20.03
2017-07-02T06:23:03.906Z,20.87
2017-07-02T06:25:32.982Z,21.50
2017-07-02T06:28:01.942Z,19.73
2017-07-02T06:30:30.164Z,20.83
2017-07-02T06:32:58.357Z,20.27
2017-07-02T06:35:26.591Z,20.13
2017-07-02T06:37:54.783Z,19.67
2017-07-02T06:40:23.750Z,18.93
2017-07-02T06:42:51.973Z,18.47
2017-07-02T06:45:20.171Z,18.57
2017-07-02T06:47:48.408Z,18.60
2017-07-02T06:50:16.663Z,19.03
2017-07-02T06:52:44.895Z,17.77
2017-07-02T06:55:13.119Z,18.77
2017-07-02T06:57:42.141Z,18.17
2017-07-02T07:00:10.344Z,18.53
2017-07-02T07:02:38.595Z,18.80
2017-07-02T07:05:06.803Z,18.00
2017-07-02T07:07:34.999Z,19.03
2017-07-02T07:10:04.015Z,17.93
2017-07-02T07:12:32.228Z,16.07
2017-07-02T07:15:00.500Z,15.70
2017-07-02T07:17:28.692Z,14.60
2017-07-02T07:19:56.892Z,15.77
2017-07-02T07:22:25.082Z,14.37
2017-07-02T07:24:53.326Z,15.63
2017-07-02T07:27:22.280Z,15.93
2017-07-02T07:29:50.550Z,15.90
2017-07-02T07:32:18.837Z,15.50
2017-07-02T07:34:47.029Z,13.60
2017-07-02T07:37:15.255Z,12.03
2017-07-02T07:39:43.468Z,13.40
2017-07-02T07:42:11.685Z,13.27
2017-07-02T07:44:39.938Z,12.90
2017-07-02T07:47:08.946Z,12.97
2017-07-02T07:49:37.908Z,13.17
2017-07-02T07:52:07.718Z,14.27
2017-07-02T07:54:35.951Z,12.80
2017-07-02T07:57:04.191Z,10.97
2017-07-02T07:59:33.184Z,11.53
2017-07-02T08:02:02.220Z,11.73
2017-07-02T08:04:30.446Z,11.70
2017-07-02T08:06:58.628Z,11.10
2017-07-02T08:09:26.856Z,10.63
2017-07-02T08:11:55.076Z,10.30
2017-07-02T08:14:23.319Z,10.20
2017-07-02T08:16:51.523Z,10.23
2017-07-02T08:19:20.534Z,8.80
2017-07-02T08:21:48.815Z,9.80
2017-07-02T08:24:16.984Z,9.73
2017-07-02T08:26:45.254Z,9.00
2017-07-02T08:29:13.496Z,8.90
2017-07-02T08:31:41.850Z,9.20
2017-07-02T08:34:10.026Z,8.67
2017-07-02T08:36:38.352Z,9.80
2017-07-02T08:39:06.537Z,8.70
2017-07-02T08:41:34.799Z,8.03
2017-07-02T08:44:03.025Z,8.63
2017-07-02T08:46:31.237Z,9.20
2017-07-02T08:48:59.630Z,9.00
2017-07-02T08:51:27.836Z,9.47
2017-07-02T08:53:56.074Z,11.37
2017-07-02T08:56:24.270Z,9.40
2017-07-02T08:58:52.508Z,8.80
2017-07-02T09:01:20.714Z,10.73
2017-07-02T09:03:48.954Z,7.60
2017-07-02T09:06:17.899Z,9.07
2017-07-02T09:08:46.175Z,10.10
2017-07-02T09:11:14.374Z,8.43
2017-07-02T09:13:42.577Z,8.30
2017-07-02T09:16:10.801Z,7.73
2017-07-02T09:18:39.311Z,7.73
2017-07-02T09:21:08.475Z,7.67
2017-07-02T09:23:36.709Z,7.07
2017-07-02T09:26:04.879Z,7.37
2017-07-02T09:28:33.111Z,12.17
2017-07-02T09:31:01.321Z,6.60
2017-07-02T09:33:29.507Z,6.03
2017-07-02T09:35:57.765Z,5.87
2017-07-02T09:38:27.163Z,5.13
2017-07-02T09:40:55.404Z,5.77
2017-07-02T09:43:23.587Z,5.70
2017-07-02T09:45:52.584Z,5.67
2017-07-02T09:48:20.829Z,5.70
2017-07-02T09:50:49.315Z,6.47
2017-07-02T09:53:17.692Z,5.57
2017-07-02T09:55:45.915Z,5.10
2017-07-02T09:58:14.160Z,5.63
2017-07-02T10:00:42.423Z,19.20
2017-07-02T10:03:10.802Z,4.87
2017-07-02T10:05:38.950Z,6.07
2017-07-02T10:08:07.298Z,5.40
2017-07-02T10:10:35.470Z,5.60
2017-07-02T10:13:03.684Z,5.30
2017-07-02T10:15:32.065Z,5.23
2017-07-02T10:18:00.374Z,5.63
2017-07-02T10:20:29.364Z,5.27
2017-07-02T10:22:58.328Z,6.37
2017-07-02T10:25:26.687Z,5.70
2017-07-02T10:27:54.950Z,5.80
2017-07-02T10:30:23.155Z,6.40
2017-07-02T10:32:51.430Z,6.50
2017-07-02T10:35:19.636Z,5.33
2017-07-02T10:37:48.734Z,6.97
2017-07-02T10:40:16.985Z,5.87
2017-07-02T10:42:45.241Z,7.47
2017-07-02T10:45:13.462Z,7.30
2017-07-02T10:47:41.684Z,6.97
2017-07-02T10:50:09.896Z,7.27
2017-07-02T10:52:38.913Z,7.10
2017-07-02T10:55:07.123Z,7.87
2017-07-02T10:57:35.456Z,7.23
2017-07-02T11:00:03.695Z,6.63
2017-07-02T11:02:31.875Z,7.80
2017-07-02T11:05:00.883Z,7.13
2017-07-02T11:07:29.866Z,6.77
2017-07-02T11:09:58.864Z,6.60
2017-07-02T11:12:27.867Z,6.50
2017-07-02T11:14:56.196Z,6.20
2017-07-02T11:17:24.444Z,6.03
2017-07-02T11:19:52.663Z,5.83
2017-07-02T11:22:20.936Z,5.00
2017-07-02T11:24:49.384Z,5.60
2017-07-02T11:27:18.435Z,6.13
2017-07-02T11:29:47.429Z,4.83
2017-07-02T11:32:16.399Z,6.23
2017-07-02T11:34:44.646Z,5.57
2017-07-02T11:37:12.847Z,6.40
2017-07-02T11:39:41.827Z,5.07
2017-07-02T11:42:10.031Z,4.80
2017-07-02T11:44:38.977Z,5.00
2017-07-02T11:47:07.383Z,4.53
2017-07-02T11:49:36.420Z,4.30
2017-07-02T11:52:04.632Z,4.30
2017-07-02T11:54:32.840Z,3.60
2017-07-02T11:57:01.212Z,3.77
2017-07-02T11:59:30.170Z,4.53
2017-07-02T12:01:58.772Z,3.57
2017-07-02T12:04:27.069Z,2.60
2017-07-02T12:06:55.289Z,3.73
2017-07-02T12:09:23.518Z,3.17
2017-07-02T12:11:51.745Z,3.10
2017-07-02T12:14:19.962Z,4.00
2017-07-02T12:16:48.936Z,4.27
2017-07-02T12:19:17.915Z,2.57
2017-07-02T12:21:46.451Z,2.80
2017-07-02T12:24:14.624Z,2.73
2017-07-02T12:26:42.872Z,3.33
2017-07-02T12:29:11.848Z,2.67
2017-07-02T12:31:40.810Z,2.70
2017-07-02T12:34:09.025Z,3.10
2017-07-02T12:36:37.969Z,2.90
2017-07-02T12:39:06.180Z,2.70
2017-07-02T12:41:35.127Z,2.30
2017-07-02T12:44:03.337Z,3.27
2017-07-02T12:46:31.487Z,2.60
2017-07-02T12:48:59.719Z,8.77
2017-07-02T12:51:28.106Z,2.40
2017-07-02T12:53:56.291Z,2.90
2017-07-02T12:56:24.530Z,2.73
2017-07-02T12:58:52.730Z,2.57
2017-07-02T13:01:20.961Z,3.13
2017-07-02T13:03:49.130Z,2.77
2017-07-02T13:06:18.148Z,2.40
2017-07-02T13:08:46.403Z,3.10
2017-07-02T13:11:15.384Z,3.60
2017-07-02T13:13:58.048Z,2.50
2017-07-02T13:16:27.103Z,2.50
2017-07-02T13:18:55.332Z,3.10
2017-07-02T13:21:23.613Z,2.83
2017-07-02T13:23:51.832Z,2.90
2017-07-02T13:26:20.809Z,4.40
2017-07-02T13:28:49.188Z,2.30
2017-07-02T13:31:17.552Z,3.10
2017-07-02T13:33:46.577Z,3.27
2017-07-02T13:36:15.609Z,3.23
2017-07-02T13:38:43.834Z,3.20
2017-07-02T13:41:12.811Z,3.30
2017-07-02T13:43:41.073Z,3.47
2017-07-02T13:46:09.276Z,2.83
2017-07-02T13:48:38.316Z,2.70
2017-07-02T13:51:06.726Z,3.13
2017-07-02T13:53:34.922Z,2.70
2017-07-02T13:56:03.139Z,3.27
2017-07-02T13:58:32.825Z,2.90
2017-07-02T14:01:01.296Z,2.90
2017-07-02T14:03:30.113Z,3.17
2017-07-02T14:05:58.524Z,3.70
2017-07-02T14:08:28.044Z,3.23
2017-07-02T14:10:57.231Z,3.10
2017-07-02T14:13:25.754Z,3.90
2017-07-02T14:15:54.445Z,4.10
2017-07-02T14:18:23.521Z,4.27
2017-07-02T14:20:51.756Z,4.20
2017-07-02T14:23:20.315Z,3.53
2017-07-02T14:25:48.781Z,4.10
2017-07-02T14:28:16.988Z,3.77
2017-07-02T14:30:45.209Z,3.37
2017-07-02T14:33:13.422Z,3.83
2017-07-02T14:35:41.635Z,3.20
2017-07-02T14:38:09.839Z,3.40
2017-07-02T14:40:38.417Z,4.57
2017-07-02T14:43:06.624Z,4.50
2017-07-02T14:45:34.796Z,3.87
2017-07-02T14:48:03.053Z,3.03
2017-07-02T14:50:32.649Z,3.50
2017-07-02T14:53:01.419Z,3.90
2017-07-02T15:01:30.545Z,4.97
2017-07-02T15:03:59.551Z,3.60
2017-07-02T15:06:27.773Z,4.27
2017-07-02T15:08:56.151Z,4.20
2017-07-02T15:11:24.500Z,4.10
2017-07-02T15:13:56.300Z,3.53
2017-07-02T15:16:25.841Z,4.30
2017-07-02T15:18:54.117Z,4.20
2017-07-02T15:21:22.377Z,4.77
2017-07-02T15:23:51.362Z,5.10
2017-07-02T15:26:20.310Z,5.10
2017-07-02T15:28:48.637Z,3.83
2017-07-02T15:31:17.755Z,4.90
2017-07-02T15:33:45.987Z,5.30
2017-07-02T15:36:14.460Z,5.87
2017-07-02T15:38:42.868Z,5.00
2017-07-02T15:41:11.143Z,5.57
2017-07-02T15:43:39.464Z,5.50
2017-07-02T15:46:07.765Z,5.50
2017-07-02T15:48:36.259Z,5.43
2017-07-02T15:51:05.206Z,5.90
2017-07-02T15:53:33.532Z,6.13
2017-07-02T15:56:02.757Z,7.40
2017-07-02T15:58:31.035Z,6.60
2017-07-02T16:00:59.222Z,4.63
2017-07-02T16:03:27.500Z,5.60
2017-07-02T16:05:55.923Z,5.70
2017-07-02T16:08:24.941Z,6.20
2017-07-02T16:10:54.264Z,5.20
2017-07-02T16:13:22.512Z,5.87
2017-07-02T16:15:50.754Z,4.03
2017-07-02T16:18:19.292Z,5.23
2017-07-02T16:20:47.744Z,4.50
2017-07-02T16:23:16.357Z,4.90
2017-07-02T16:25:44.660Z,4.43
2017-07-02T16:28:14.639Z,4.63
2017-07-02T16:30:43.007Z,4.47
2017-07-02T16:33:11.211Z,4.57
2017-07-02T16:35:39.410Z,6.93
2017-07-02T16:38:07.848Z,6.03
2017-07-02T16:40:38.396Z,5.70
2017-07-02T16:43:08.307Z,4.10
2017-07-02T16:45:36.616Z,4.30
2017-07-02T16:48:07.068Z,7.27
2017-07-02T16:50:37.682Z,5.33
2017-07-02T16:53:07.673Z,4.00
2017-07-02T16:55:38.301Z,4.40
2017-07-02T16:58:07.796Z,4.43
2017-07-02T17:00:36.900Z,5.83
2017-07-02T17:03:05.142Z,3.87
2017-07-02T17:05:33.350Z,3.80
2017-07-02T17:08:01.521Z,3.97
2017-07-02T17:10:29.833Z,4.17
2017-07-02T17:12:58.216Z,4.27
2017-07-02T17:15:26.665Z,4.10
2017-07-02T17:17:54.915Z,18.60
2017-07-02T17:20:23.314Z,4.63
2017-07-02T17:22:52.160Z,5.10
2017-07-02T17:25:20.502Z,4.63
2017-07-02T17:27:49.571Z,3.97
2017-07-02T17:30:17.755Z,3.40
2017-07-02T17:32:46.275Z,3.70
2017-07-02T17:35:14.465Z,4.40
2017-07-02T17:37:45.043Z,3.73
2017-07-02T17:40:13.415Z,3.70
2017-07-02T17:42:43.201Z,4.20
2017-07-02T17:45:13.078Z,4.53
2017-07-02T17:47:42.486Z,4.47
2017-07-02T17:50:11.528Z,5.03
2017-07-02T17:52:40.134Z,5.43
2017-07-02T17:55:11.364Z,4.10
2017-07-02T17:57:41.069Z,4.17
2017-07-02T18:00:11.923Z,4.30
2017-07-02T18:02:42.130Z,5.17
2017-07-02T18:05:10.713Z,4.00
2017-07-02T18:07:40.985Z,5.10
2017-07-02T18:10:11.734Z,4.37
2017-07-02T18:12:41.845Z,3.80
2017-07-02T18:15:11.544Z,3.73
2017-07-02T18:17:41.531Z,4.80
2017-07-02T18:20:09.838Z,4.10
2017-07-02T18:22:39.682Z,5.30
2017-07-02T18:25:08.039Z,3.93
2017-07-02T18:27:36.534Z,7.27
2017-07-02T18:30:04.738Z,6.40
2017-07-02T18:32:34.143Z,4.50
2017-07-02T18:35:04.642Z,4.93
2017-07-02T18:37:56.157Z,9.43
2017-07-02T18:40:25.266Z,4.07
2017-07-02T18:42:54.654Z,4.90
2017-07-02T18:45:23.351Z,3.67
2017-07-02T18:47:52.816Z,4.03
2017-07-02T18:50:21.103Z,4.00
2017-07-02T18:52:49.455Z,4.33
2017-07-02T18:55:18.057Z,4.10
2017-07-02T18:57:46.809Z,4.17
2017-07-02T19:00:15.045Z,5.70
2017-07-02T19:02:43.470Z,4.67
2017-07-02T19:05:11.811Z,4.63
2017-07-02T19:07:40.355Z,4.10
2017-07-02T19:10:09.878Z,4.50
2017-07-02T19:12:38.351Z,4.00
2017-07-02T19:15:06.879Z,16.20
2017-07-02T19:17:35.368Z,5.33
2017-07-02T19:20:03.590Z,4.87
2017-07-02T19:22:31.835Z,5.07
2017-07-02T19:25:00.032Z,4.60
2017-07-02T19:27:28.589Z,4.60
2017-07-02T19:29:56.817Z,4.57
2017-07-02T19:32:26.237Z,4.60
2017-07-02T19:34:54.519Z,4.80
2017-07-02T19:37:23.056Z,4.50
2017-07-02T19:39:51.615Z,4.30
2017-07-02T19:42:20.137Z,6.00
2017-07-02T19:44:48.427Z,8.33
2017-07-02T19:47:17.657Z,6.03
2017-07-02T19:49:45.967Z,4.80
2017-07-02T19:52:14.337Z,4.43
2017-07-02T19:54:42.876Z,4.43
2017-07-02T19:57:11.315Z,4.03
2017-07-02T19:59:40.360Z,4.60
2017-07-02T20:02:09.285Z,5.30
2017-07-02T20:10:26.376Z,16.70
2017-07-02T20:12:56.504Z,4.73
2017-07-02T20:15:46.416Z,3.60
2017-07-02T20:18:15.512Z,3.50
2017-07-02T20:20:43.837Z,4.17
2017-07-02T20:23:16.105Z,3.63
2017-07-02T20:25:47.256Z,3.47
2017-07-02T20:31:31.774Z,4.00
2017-07-02T20:34:00.785Z,3.80
2017-07-02T20:36:29.435Z,8.77
2017-07-02T20:38:58.484Z,4.27
2017-07-02T20:41:27.012Z,3.40
2017-07-02T20:43:55.483Z,3.63
2017-07-02T20:46:24.137Z,3.23
2017-07-02T20:49:01.029Z,3.90
2017-07-02T20:51:34.249Z,3.50
2017-07-02T20:54:02.811Z,3.97
2017-07-02T20:56:31.177Z,3.40
2017-07-02T20:59:00.306Z,3.90
2017-07-02T21:04:28.808Z,3.70
2017-07-02T21:06:57.746Z,2.90
2017-07-02T21:09:25.974Z,3.70
2017-07-02T21:11:54.912Z,3.70
2017-07-02T21:14:23.145Z,3.70
2017-07-02T21:16:51.363Z,3.53
2017-07-02T21:19:20.623Z,3.60
2017-07-02T21:21:48.879Z,4.63
2017-07-02T21:24:17.912Z,4.17
2017-07-02T21:26:46.169Z,5.10
2017-07-02T21:29:14.338Z,4.50
2017-07-02T21:31:42.568Z,4.70
2017-07-02T21:34:10.786Z,3.83
2017-07-02T21:36:38.979Z,3.87
2017-07-02T21:39:07.184Z,4.07
2017-07-02T21:41:35.413Z,4.57
2017-07-02T21:44:03.612Z,4.47
2017-07-02T21:46:32.035Z,4.80
2017-07-02T21:49:00.256Z,5.83
2017-07-02T21:51:28.491Z,4.07
2017-07-02T21:53:56.970Z,4.23
2017-07-02T21:56:25.991Z,4.13
2017-07-02T21:58:54.165Z,4.10
2017-07-02T22:01:22.350Z,4.60
2017-07-02T22:03:50.668Z,4.40
2017-07-02T22:06:19.096Z,4.20
2017-07-02T22:08:47.274Z,3.80
2017-07-02T22:11:15.871Z,4.03
2017-07-02T22:13:44.099Z,4.70
2017-07-02T22:16:12.287Z,4.00
2017-07-02T22:18:40.536Z,4.70
2017-07-02T22:21:08.727Z,4.77
2017-07-02T22:23:36.910Z,3.83
2017-07-02T22:26:05.210Z,4.80
2017-07-02T22:28:33.440Z,4.60
2017-07-02T22:31:02.385Z,4.30
2017-07-02T22:33:30.590Z,4.17
2017-07-02T22:35:58.770Z,4.53
2017-07-02T22:38:27.737Z,3.90
2017-07-02T22:40:55.944Z,4.30
2017-07-02T22:43:24.891Z,3.37
2017-07-02T22:45:53.106Z,3.90
2017-07-02T22:48:22.066Z,4.70
2017-07-02T22:50:50.220Z,3.90
2017-07-02T22:53:18.807Z,4.23
2017-07-02T22:55:47.149Z,5.13
2017-07-02T22:58:15.421Z,4.63
2017-07-02T23:00:43.612Z,5.23
2017-07-02T23:03:11.835Z,4.70
2017-07-02T23:05:40.788Z,4.70
2017-07-02T23:08:09.631Z,5.37
2017-07-02T23:10:38.734Z,4.20
2017-07-02T23:13:07.661Z,4.80
2017-07-02T23:15:35.848Z,5.53
2017-07-02T23:18:04.052Z,5.20
2017-07-02T23:20:32.238Z,6.20
2017-07-02T23:23:01.216Z,5.50
2017-07-02T23:25:29.396Z,6.00
2017-07-02T23:27:58.460Z,5.73
2017-07-02T23:30:26.683Z,5.93
2017-07-02T23:32:55.625Z,5.37
2017-07-02T23:35:23.827Z,5.37
2017-07-02T23:37:52.069Z,6.57
2017-07-02T23:40:20.221Z,6.37
2017-07-02T23:42:48.459Z,5.50
2017-07-02T23:45:17.535Z,6.00
2017-07-02T23:47:45.711Z,7.33
2017-07-02T23:50:14.682Z,6.37
2017-07-02T23:52:42.865Z,6.73
2017-07-02T23:55:11.028Z,5.90
2017-07-02T23:57:39.269Z,5.60
